This is the latest recevied weather packets stored in our database for station/object KO4DYK. If no packets are shown the sender has not sent any weather packets the latest 10 day(s).
| Time | Temp. | Humidity | Pressure | Rain* | Wind** | Luminosity | Snow |
|---|---|---|---|---|---|---|---|
| 1777758612 | 19.44° C | 42% | 1020.5 hPa | 0 mm | - | 109 W/m² | - |
| 1777758309 | 20° C | 41% | 1020.5 hPa | 0 mm | - | 123 W/m² | - |
| 1777758006 | 20° C | 38% | 1020.4 hPa | 0 mm | - | 509 W/m² | - |
| 1777757702 | 20.56° C | 39% | 1020.3 hPa | 0 mm | - | 502 W/m² | - |
| 1777757401 | 21.11° C | 40% | 1020.4 hPa | 0 mm | - | 526 W/m² | - |
| 1777757099 | 21.67° C | 38% | 1020.4 hPa | 0 mm | - | 536 W/m² | - |
| 1777756796 | 21.67° C | 39% | 1020.3 hPa | 0 mm | - | 552 W/m² | - |
| 1777756492 | 21.11° C | 41% | 1020.5 hPa | 0 mm | - | 504 W/m² | - |
| 1777756189 | 20° C | 41% | 1020.4 hPa | 0 mm | - | 323 W/m² | - |
| 1777755886 | 20° C | 44% | 1020.6 hPa | 0 mm | - | 405 W/m² | - |
| 1777755583 | 20.56° C | 45% | 1020.5 hPa | 0 mm | - | 214 W/m² | - |
| 1777755279 | 20.56° C | 51% | 1020.5 hPa | 0 mm | - | 174 W/m² | - |
| 1777754977 | 20.56° C | 47% | 1020.5 hPa | 0 mm | - | 608 W/m² | - |
| 1777754673 | 20° C | 51% | 1020.6 hPa | 0 mm | - | 629 W/m² | - |
| 1777754372 | 18.89° C | 55% | 1020.7 hPa | 0 mm | - | 608 W/m² | - |
| 1777754069 | 17.78° C | 58% | 1020.9 hPa | 0 mm | - | 637 W/m² | - |
| 1777753764 | 17.78° C | 53% | 1020.9 hPa | 0 mm | - | 632 W/m² | - |
| 1777753461 | 20° C | 47% | 1021.1 hPa | 0 mm | - | 145 W/m² | - |
| 1777753160 | 20.56° C | 43% | 1020.8 hPa | 0 mm | - | 167 W/m² | - |
| 1777752855 | 21.67° C | 40% | 1020.8 hPa | 0 mm | - | 371 W/m² | - |
| 1777752552 | 21.11° C | 41% | 1020.9 hPa | 0 mm | - | 617 W/m² | - |
| 1777752248 | 20.56° C | 41% | 1021 hPa | 0 mm | - | 713 W/m² | - |
| 1777751946 | 20.56° C | 42% | 1020.9 hPa | 0 mm | - | 707 W/m² | - |
| 1777751643 | 21.67° C | 39% | 1020.9 hPa | 0 mm | - | 165 W/m² | - |
| 1777751339 | 21.11° C | 42% | 1021 hPa | 0 mm | - | 238 W/m² | - |
* Rain latest hour (hover to see other rain measurements)
** Current wind speed in m/s (hover to see current wind gust speed)